Time;durP1;ratioP1;P1;durP2;ratioP2;P2;SDS_P1;SDS_P2;PMS_P1;PMS_P2;Temp;Humidity;BMP_temperature;BMP_pressure;BME280_temperature;BME280_humidity;BME280_pressure;Samples;Min_cycle;Max_cycle;Signal;HPM_P1;HPM_P2
2021/09/19 00:02:20;;;;;;;7.78;4.57;;;13.70;99.90;;;;;;7413243;19;20013;-87
2021/09/19 00:04:52;;;;;;;7.70;4.20;;;13.70;99.90;;;;;;7406096;19;20424;-87
2021/09/19 00:07:21;;;;;;;8.40;4.43;;;13.80;99.90;;;;;;7405818;19;20014;-85
2021/09/19 00:09:50;;;;;;;7.50;4.40;;;13.70;99.90;;;;;;7404116;19;20006;-87
2021/09/19 00:12:23;;;;;;;8.20;4.55;;;13.80;99.90;;;;;;7405600;19;20015;-86
2021/09/19 00:14:55;;;;;;;7.65;4.35;;;13.70;99.90;;;;;;7406648;19;20011;-88
2021/09/19 00:17:24;;;;;;;9.43;4.75;;;13.70;99.90;;;;;;7408770;19;20082;-86
2021/09/19 00:19:56;;;;;;;6.45;4.72;;;13.70;99.90;;;;;;7408699;19;20018;-86
2021/09/19 00:22:25;;;;;;;11.88;4.40;;;13.70;99.90;;;;;;7406880;19;20021;-88
2021/09/19 00:24:54;;;;;;;8.45;4.78;;;13.70;99.90;;;;;;7408631;19;20010;-88
2021/09/19 00:27:24;;;;;;;7.13;4.30;;;13.70;99.90;;;;;;7407997;19;20014;-88
2021/09/19 00:30:11;;;;;;;6.60;4.30;;;13.70;99.90;;;;;;7405443;19;20357;-87
2021/09/19 00:32:43;;;;;;;8.02;4.55;;;13.70;99.90;;;;;;7419981;19;20019;-87
2021/09/19 00:35:13;;;;;;;8.82;4.50;;;13.60;99.90;;;;;;7413453;19;20046;-88
2021/09/19 00:37:43;;;;;;;7.00;4.47;;;13.60;99.90;;;;;;7413435;19;20086;-88
2021/09/19 00:40:15;;;;;;;6.55;3.95;;;13.70;99.90;;;;;;7411590;19;20010;-84
2021/09/19 00:42:44;;;;;;;6.35;3.85;;;13.70;99.90;;;;;;7409667;19;20044;-88
2021/09/19 00:45:21;;;;;;;6.65;4.22;;;13.60;99.90;;;;;;7408982;19;20019;-88
2021/09/19 00:47:51;;;;;;;8.38;4.65;;;13.60;99.90;;;;;;7408124;19;20014;-86
2021/09/19 00:50:26;;;;;;;8.85;4.60;;;13.70;99.90;;;;;;7401745;19;20018;-87
2021/09/19 00:52:56;;;;;;;7.50;5.38;;;13.70;99.90;;;;;;7406126;19;20022;-86
2021/09/19 00:55:27;;;;;;;8.30;4.57;;;13.60;99.90;;;;;;7406760;19;20002;-88
2021/09/19 00:57:58;;;;;;;7.75;4.47;;;13.60;99.90;;;;;;7409128;19;20021;-87
2021/09/19 01:00:31;;;;;;;6.45;4.80;;;13.60;99.90;;;;;;7405456;19;20011;-87
2021/09/19 01:03:01;;;;;;;8.27;4.35;;;13.60;99.90;;;;;;7405052;19;20306;-87
2021/09/19 01:05:31;;;;;;;7.35;4.70;;;13.60;99.90;;;;;;7407096;19;20010;-85
2021/09/19 01:08:01;;;;;;;8.00;4.60;;;13.60;99.90;;;;;;7403072;19;20102;-87
2021/09/19 01:10:30;;;;;;;7.18;4.68;;;13.60;99.90;;;;;;7404693;19;20078;-89
2021/09/19 01:13:00;;;;;;;6.22;4.10;;;13.60;99.90;;;;;;7403817;19;20019;-86
2021/09/19 01:15:35;;;;;;;7.45;4.22;;;13.60;99.90;;;;;;7402525;19;20082;-87
2021/09/19 01:18:05;;;;;;;6.07;4.47;;;13.60;99.90;;;;;;7404907;19;20018;-86
2021/09/19 01:20:35;;;;;;;5.57;3.92;;;13.60;99.90;;;;;;7404104;19;20066;-88
2021/09/19 01:23:10;;;;;;;11.02;4.28;;;13.60;99.90;;;;;;7404446;19;20015;-86
2021/09/19 01:25:45;;;;;;;7.55;4.10;;;13.60;99.90;;;;;;7404477;19;20009;-88
2021/09/19 01:28:16;;;;;;;6.78;4.25;;;13.60;99.90;;;;;;7404700;19;20021;-86
2021/09/19 01:30:45;;;;;;;6.32;3.80;;;13.60;99.90;;;;;;7403487;19;20436;-86
2021/09/19 01:33:16;;;;;;;6.90;3.47;;;13.60;99.90;;;;;;7402529;19;20007;-87
2021/09/19 01:35:46;;;;;;;7.47;3.95;;;13.70;99.90;;;;;;7401032;19;20014;-87
2021/09/19 01:38:20;;;;;;;7.28;3.22;;;13.60;99.90;;;;;;7400737;19;20336;-86
2021/09/19 01:40:52;;;;;;;7.95;3.63;;;13.60;99.90;;;;;;7401199;19;20093;-88
2021/09/19 01:43:24;;;;;;;6.95;3.15;;;13.60;99.90;;;;;;7404025;19;20024;-87
2021/09/19 01:46:00;;;;;;;8.73;3.63;;;13.60;99.90;;;;;;7404102;19;20048;-87
2021/09/19 01:48:33;;;;;;;8.13;3.10;;;13.50;99.90;;;;;;7402627;19;20010;-85
2021/09/19 01:51:04;;;;;;;6.07;3.10;;;13.50;99.90;;;;;;7400553;19;20578;-88
2021/09/19 01:53:34;;;;;;;7.97;3.20;;;13.50;99.90;;;;;;7403222;19;20018;-87
2021/09/19 01:56:08;;;;;;;5.65;3.10;;;13.40;99.90;;;;;;7400941;19;20022;-86
2021/09/19 01:58:43;;;;;;;5.65;3.28;;;13.40;99.90;;;;;;7400931;19;20044;-88
2021/09/19 02:01:15;;;;;;;6.38;3.10;;;13.40;99.90;;;;;;7400918;19;20361;-88
2021/09/19 02:03:45;;;;;;;7.50;2.65;;;13.30;99.90;;;;;;7399715;19;20014;-87
2021/09/19 02:06:16;;;;;;;6.90;3.03;;;13.40;99.90;;;;;;7402295;19;20014;-88
2021/09/19 02:08:46;;;;;;;7.57;2.88;;;13.30;99.90;;;;;;7399707;19;20011;-87
2021/09/19 02:11:22;;;;;;;6.05;3.30;;;13.30;99.90;;;;;;7401802;19;20014;-88
2021/09/19 02:13:52;;;;;;;10.32;3.78;;;13.30;99.90;;;;;;7400092;19;20014;-87
2021/09/19 02:16:23;;;;;;;6.70;3.00;;;13.30;99.90;;;;;;7400258;19;20013;-87
2021/09/19 02:18:56;;;;;;;8.35;2.80;;;13.30;99.90;;;;;;7404272;19;20022;-86
2021/09/19 02:21:26;;;;;;;6.43;3.28;;;13.30;99.90;;;;;;7406371;19;20009;-88
2021/09/19 02:23:55;;;;;;;6.78;3.08;;;13.20;99.90;;;;;;7405465;19;20007;-86
2021/09/19 02:26:27;;;;;;;6.45;2.92;;;13.20;99.90;;;;;;7405588;19;20074;-86
2021/09/19 02:29:02;;;;;;;6.13;2.80;;;13.20;99.90;;;;;;7407528;19;20006;-87
2021/09/19 02:31:31;;;;;;;6.63;2.78;;;13.20;99.90;;;;;;7404498;19;20021;-87
2021/09/19 02:34:00;;;;;;;4.93;3.20;;;13.20;99.90;;;;;;7403045;19;20021;-86
2021/09/19 02:36:30;;;;;;;6.22;3.60;;;13.20;99.90;;;;;;7402357;19;20014;-87
2021/09/19 02:38:59;;;;;;;6.45;3.17;;;13.10;99.90;;;;;;7400846;19;20054;-86
2021/09/19 02:41:34;;;;;;;6.18;3.28;;;13.00;99.90;;;;;;7402307;19;20428;-88
2021/09/19 02:44:03;;;;;;;5.85;3.25;;;13.10;99.90;;;;;;7401115;19;20010;-86
2021/09/19 02:46:37;;;;;;;6.00;3.35;;;13.00;99.90;;;;;;7403557;19;20010;-87
2021/09/19 02:49:07;;;;;;;7.20;3.00;;;13.00;99.90;;;;;;7405917;19;20297;-87
2021/09/19 02:51:36;;;;;;;8.45;3.65;;;13.00;99.90;;;;;;7405041;19;20021;-87
2021/09/19 02:54:08;;;;;;;7.85;3.60;;;13.10;99.90;;;;;;7401161;19;20013;-87
2021/09/19 02:56:40;;;;;;;7.85;4.13;;;13.10;99.90;;;;;;7401235;19;20450;-87
2021/09/19 02:59:10;;;;;;;8.25;3.55;;;13.00;99.90;;;;;;7405115;19;20014;-87
2021/09/19 03:01:41;;;;;;;6.30;3.20;;;13.00;99.90;;;;;;7405176;19;20014;-87
2021/09/19 03:04:10;;;;;;;6.72;3.55;;;13.00;99.90;;;;;;7408148;19;20018;-85
2021/09/19 03:06:40;;;;;;;5.50;2.92;;;13.00;99.90;;;;;;7409156;19;20010;-86
2021/09/19 03:09:09;;;;;;;6.53;3.60;;;13.00;99.90;;;;;;7407690;19;20013;-86
2021/09/19 03:11:41;;;;;;;6.93;3.38;;;13.00;99.90;;;;;;7401615;19;20013;-86
2021/09/19 03:14:11;;;;;;;5.25;2.90;;;13.00;99.90;;;;;;7403049;19;20036;-88
2021/09/19 03:16:40;;;;;;;6.55;3.10;;;13.00;99.90;;;;;;7406190;19;20062;-87
2021/09/19 03:19:09;;;;;;;5.13;3.30;;;13.00;99.90;;;;;;7401747;19;20007;-88
2021/09/19 03:21:39;;;;;;;6.97;3.60;;;12.90;99.90;;;;;;7399564;19;20025;-87
2021/09/19 03:24:13;;;;;;;7.88;3.58;;;12.90;99.90;;;;;;7399184;19;20420;-89
2021/09/19 03:26:47;;;;;;;6.85;3.60;;;12.90;99.90;;;;;;7399279;19;20017;-86
2021/09/19 03:29:20;;;;;;;11.35;4.70;;;12.90;99.90;;;;;;7398502;19;20034;-87
2021/09/19 03:31:49;;;;;;;9.85;3.20;;;12.80;99.90;;;;;;7403798;19;20345;-87
2021/09/19 03:34:19;;;;;;;8.57;3.50;;;12.80;99.90;;;;;;7404978;19;20007;-87
2021/09/19 03:36:48;;;;;;;6.35;3.30;;;12.70;99.90;;;;;;7404975;19;20444;-85
2021/09/19 03:39:17;;;;;;;8.27;3.42;;;12.50;99.90;;;;;;7404710;19;20006;-87
2021/09/19 03:41:49;;;;;;;7.30;3.55;;;12.40;99.90;;;;;;7403782;19;20015;-87
2021/09/19 03:44:18;;;;;;;5.90;3.40;;;12.20;99.90;;;;;;7403241;19;20671;-87
2021/09/19 03:46:50;;;;;;;5.90;3.30;;;12.10;99.90;;;;;;7403903;19;20015;-87
2021/09/19 03:49:20;;;;;;;6.65;4.40;;;12.00;99.90;;;;;;7404185;19;20022;-87
2021/09/19 03:51:49;;;;;;;6.97;3.42;;;11.80;99.90;;;;;;7405932;19;20010;-89
2021/09/19 03:54:18;;;;;;;7.13;3.72;;;11.80;99.90;;;;;;7410178;19;20018;-88
2021/09/19 03:56:50;;;;;;;8.88;3.90;;;11.70;99.90;;;;;;7408039;19;20007;-88
2021/09/19 03:59:20;;;;;;;7.72;3.75;;;11.70;99.90;;;;;;7411818;19;20018;-85
2021/09/19 04:01:52;;;;;;;8.52;4.28;;;11.70;99.90;;;;;;7413142;19;20022;-87
2021/09/19 04:04:23;;;;;;;8.90;3.65;;;11.70;99.90;;;;;;7411575;19;20044;-87
2021/09/19 04:06:53;;;;;;;7.93;3.97;;;11.70;99.90;;;;;;7408980;19;20034;-86
2021/09/19 04:09:22;;;;;;;8.80;4.40;;;11.60;99.90;;;;;;7405718;19;20438;-87
2021/09/19 04:11:56;;;;;;;10.68;5.00;;;11.60;99.90;;;;;;7402533;19;20078;-87
2021/09/19 04:14:28;;;;;;;9.18;3.95;;;11.60;99.90;;;;;;7405072;19;20010;-88
2021/09/19 04:16:59;;;;;;;6.35;3.47;;;11.60;99.90;;;;;;7405855;19;20013;-87
2021/09/19 04:19:28;;;;;;;8.02;3.50;;;11.70;99.90;;;;;;7404785;19;20018;-87
2021/09/19 04:21:57;;;;;;;7.78;3.92;;;11.70;99.90;;;;;;7404005;19;20384;-86
2021/09/19 04:24:26;;;;;;;9.80;3.65;;;11.80;99.90;;;;;;7404235;19;20017;-87
2021/09/19 04:27:03;;;;;;;7.55;4.00;;;11.80;99.90;;;;;;7405811;19;20014;-87
2021/09/19 04:29:34;;;;;;;7.88;3.60;;;11.80;99.90;;;;;;7407215;19;20479;-87
2021/09/19 04:32:03;;;;;;;8.85;3.83;;;11.90;99.90;;;;;;7404111;19;20412;-87
2021/09/19 04:34:33;;;;;;;7.65;3.80;;;11.90;99.90;;;;;;7403746;19;20104;-86
2021/09/19 04:37:02;;;;;;;8.80;4.00;;;11.90;99.90;;;;;;7401975;19;20014;-86
2021/09/19 04:39:32;;;;;;;6.82;3.45;;;12.00;99.90;;;;;;7402477;19;20015;-85
2021/09/19 04:42:04;;;;;;;7.55;3.35;;;12.00;99.90;;;;;;7401390;19;20013;-86
2021/09/19 04:44:33;;;;;;;6.07;3.80;;;12.00;99.90;;;;;;7402095;19;20017;-86
2021/09/19 04:47:03;;;;;;;8.05;3.85;;;11.90;99.90;;;;;;7401393;19;20020;-86
2021/09/19 04:49:34;;;;;;;6.50;3.65;;;12.00;99.90;;;;;;7401966;19;20325;-87
2021/09/19 04:52:06;;;;;;;6.72;3.78;;;11.90;99.90;;;;;;7400573;19;20020;-87
2021/09/19 04:54:37;;;;;;;5.82;3.55;;;12.00;99.90;;;;;;7402440;19;20018;-87
2021/09/19 04:57:11;;;;;;;6.97;3.65;;;12.00;99.90;;;;;;7403308;19;20021;-89
2021/09/19 04:59:41;;;;;;;6.38;3.60;;;12.00;99.90;;;;;;7408187;19;20038;-88
2021/09/19 05:02:10;;;;;;;8.77;3.78;;;12.00;99.90;;;;;;7402945;19;20066;-86
2021/09/19 05:04:39;;;;;;;6.70;3.70;;;12.00;99.90;;;;;;7402061;19;20440;-87
2021/09/19 05:07:09;;;;;;;6.85;3.67;;;12.10;99.90;;;;;;7405080;19;20029;-87
2021/09/19 05:09:42;;;;;;;6.10;3.60;;;12.10;99.90;;;;;;7402647;19;20025;-89
2021/09/19 05:12:14;;;;;;;6.65;3.60;;;12.20;99.90;;;;;;7402914;19;20009;-87
2021/09/19 05:14:43;;;;;;;5.35;3.50;;;12.30;99.90;;;;;;7403677;19;20011;-87
2021/09/19 05:17:12;;;;;;;7.13;3.53;;;12.30;99.90;;;;;;7402803;19;20444;-88
2021/09/19 05:19:42;;;;;;;6.57;3.47;;;12.30;99.90;;;;;;7401359;19;20014;-88
2021/09/19 05:22:11;;;;;;;6.03;3.20;;;12.40;99.90;;;;;;7405342;19;20021;-88
2021/09/19 05:24:40;;;;;;;6.55;3.63;;;12.40;99.90;;;;;;7402315;19;20015;-87
2021/09/19 05:27:15;;;;;;;6.30;3.58;;;12.50;99.90;;;;;;7403469;19;20010;-87
2021/09/19 05:29:47;;;;;;;7.28;3.58;;;12.50;99.90;;;;;;7404842;19;20023;-88
2021/09/19 05:32:16;;;;;;;8.00;3.40;;;12.50;99.90;;;;;;7403183;19;20006;-87
2021/09/19 05:34:46;;;;;;;7.10;3.90;;;12.60;99.90;;;;;;7400656;19;20014;-86
2021/09/19 05:37:15;;;;;;;7.10;3.65;;;12.60;99.90;;;;;;7400940;19;20021;-87
2021/09/19 05:39:49;;;;;;;8.43;3.67;;;12.70;99.90;;;;;;7400721;19;20019;-88
2021/09/19 05:42:21;;;;;;;6.95;3.45;;;12.80;99.90;;;;;;7402663;19;20014;-86
2021/09/19 05:44:52;;;;;;;8.95;3.88;;;12.80;99.90;;;;;;7402020;19;20021;-88
2021/09/19 05:47:22;;;;;;;7.43;4.18;;;12.80;99.90;;;;;;7400627;19;20014;-88
2021/09/19 05:49:51;;;;;;;5.93;3.25;;;12.90;99.90;;;;;;7398945;19;20014;-88
2021/09/19 05:52:21;;;;;;;7.22;3.65;;;13.00;99.90;;;;;;7399409;19;20013;-85
2021/09/19 05:54:52;;;;;;;8.10;4.18;;;13.00;99.90;;;;;;7399893;19;20017;-87
2021/09/19 05:57:24;;;;;;;10.10;3.63;;;13.00;99.90;;;;;;7402082;19;20025;-87
2021/09/19 05:59:56;;;;;;;6.43;3.60;;;13.00;99.90;;;;;;7401490;19;20451;-87
2021/09/19 06:02:28;;;;;;;7.63;3.22;;;13.10;99.90;;;;;;7401338;19;20010;-89
2021/09/19 06:04:58;;;;;;;10.35;4.45;;;13.10;99.90;;;;;;7399162;19;20035;-87
2021/09/19 06:07:29;;;;;;;5.97;3.75;;;13.20;99.90;;;;;;7400365;19;20022;-87
2021/09/19 06:09:59;;;;;;;9.73;4.53;;;13.30;99.90;;;;;;7399997;19;20040;-87
2021/09/19 06:12:31;;;;;;;10.77;3.97;;;13.30;99.90;;;;;;7399810;19;20070;-87
2021/09/19 06:15:00;;;;;;;7.30;3.45;;;13.40;99.90;;;;;;7402135;19;20021;-88
2021/09/19 06:17:31;;;;;;;5.68;3.95;;;13.40;99.90;;;;;;7402642;19;20420;-87
2021/09/19 06:20:01;;;;;;;5.72;3.63;;;13.50;99.90;;;;;;7401564;19;20033;-87
2021/09/19 06:22:30;;;;;;;8.43;4.20;;;13.60;99.90;;;;;;7405200;19;20010;-87
2021/09/19 06:25:02;;;;;;;9.63;3.75;;;13.60;99.90;;;;;;7408506;19;20011;-87
2021/09/19 06:27:36;;;;;;;7.90;3.88;;;13.70;99.90;;;;;;7399979;19;20014;-88
2021/09/19 06:30:07;;;;;;;5.53;3.47;;;13.70;99.90;;;;;;7400855;19;20011;-89
2021/09/19 06:32:36;;;;;;;8.98;4.35;;;13.70;99.90;;;;;;7399399;19;20466;-86
2021/09/19 06:35:08;;;;;;;9.00;3.50;;;13.70;99.90;;;;;;7411975;19;20018;-89
2021/09/19 06:37:40;;;;;;;5.38;3.30;;;13.70;99.90;;;;;;7400509;19;20058;-87
2021/09/19 06:40:11;;;;;;;6.20;3.10;;;13.70;99.90;;;;;;7400491;19;20066;-87
2021/09/19 06:42:45;;;;;;;10.05;3.95;;;13.80;99.90;;;;;;7402207;19;20332;-87
2021/09/19 06:45:14;;;;;;;7.35;4.03;;;13.80;99.90;;;;;;7400739;19;20011;-87
2021/09/19 06:47:46;;;;;;;7.07;4.40;;;13.80;99.90;;;;;;7402883;19;20329;-87
2021/09/19 06:50:15;;;;;;;5.85;3.42;;;13.80;99.90;;;;;;7399383;19;20337;-88
2021/09/19 06:52:45;;;;;;;4.93;3.50;;;13.80;99.90;;;;;;7401987;19;20006;-88
2021/09/19 06:55:14;;;;;;;8.63;4.82;;;13.80;99.90;;;;;;7407282;19;20042;-87
2021/09/19 06:57:46;;;;;;;8.20;4.07;;;13.90;99.90;;;;;;7411436;19;20021;-86
2021/09/19 07:00:19;;;;;;;6.90;3.45;;;13.80;99.90;;;;;;7408810;19;20021;-87
2021/09/19 07:02:48;;;;;;;6.25;3.67;;;13.90;99.90;;;;;;7416909;19;20468;-88
2021/09/19 07:05:20;;;;;;;7.97;3.90;;;13.90;99.90;;;;;;7406836;19;20420;-88
2021/09/19 07:07:50;;;;;;;9.70;3.38;;;13.90;99.90;;;;;;7402305;19;20018;-87
2021/09/19 07:10:19;;;;;;;5.07;3.40;;;13.90;99.90;;;;;;7403620;19;20014;-88
2021/09/19 07:12:53;;;;;;;7.10;3.13;;;13.90;99.90;;;;;;7404459;19;20006;-89
2021/09/19 07:15:25;;;;;;;7.40;3.53;;;13.90;99.90;;;;;;7402011;19;20009;-86
2021/09/19 07:17:55;;;;;;;7.07;3.20;;;13.90;99.90;;;;;;7400910;19;20018;-85
2021/09/19 07:20:24;;;;;;;5.80;3.38;;;13.90;99.90;;;;;;7404861;19;20007;-88
2021/09/19 07:22:55;;;;;;;10.18;3.65;;;13.80;99.90;;;;;;7401095;19;20010;-86
2021/09/19 07:25:25;;;;;;;10.25;4.00;;;13.90;99.90;;;;;;7401119;19;20007;-87
2021/09/19 07:27:58;;;;;;;6.60;3.28;;;13.90;99.90;;;;;;7401346;19;20022;-87
2021/09/19 07:30:28;;;;;;;7.70;3.53;;;14.00;99.90;;;;;;7400555;19;20020;-87
2021/09/19 07:32:57;;;;;;;5.85;3.53;;;14.10;99.90;;;;;;7403908;19;20036;-86
2021/09/19 07:35:33;;;;;;;5.93;3.00;;;14.10;99.90;;;;;;7408112;19;20010;-87
2021/09/19 07:38:05;;;;;;;5.15;2.72;;;14.20;99.90;;;;;;7408659;19;20015;-86
2021/09/19 07:40:36;;;;;;;4.72;2.60;;;14.30;99.90;;;;;;7413045;19;20006;-88
2021/09/19 07:43:08;;;;;;;6.07;3.30;;;14.30;99.90;;;;;;7414459;19;20006;-87
2021/09/19 07:45:38;;;;;;;6.00;2.55;;;14.40;99.90;;;;;;7411159;19;20014;-89
2021/09/19 07:48:11;;;;;;;7.85;3.30;;;14.50;99.90;;;;;;7406933;19;20029;-86
2021/09/19 07:50:41;;;;;;;5.55;3.17;;;14.60;99.90;;;;;;7408273;19;20003;-88
2021/09/19 07:53:13;;;;;;;7.75;3.38;;;14.60;99.90;;;;;;7403776;19;20025;-87
2021/09/19 07:55:43;;;;;;;5.07;2.60;;;14.70;99.90;;;;;;7411531;19;20019;-88
2021/09/19 07:58:18;;;;;;;7.82;3.10;;;14.70;99.70;;;;;;7411410;19;20123;-88
2021/09/19 08:00:47;;;;;;;5.07;3.00;;;14.80;99.80;;;;;;7411482;19;20010;-89
2021/09/19 08:03:18;;;;;;;6.53;2.80;;;14.90;99.80;;;;;;7410375;19;20021;-89
2021/09/19 08:05:47;;;;;;;5.35;3.20;;;14.90;99.40;;;;;;7407084;19;20416;-87
2021/09/19 08:08:17;;;;;;;6.90;3.03;;;15.00;99.30;;;;;;7402464;19;20035;-89
2021/09/19 08:10:47;;;;;;;5.88;3.15;;;15.00;99.20;;;;;;7409819;19;20010;-88
2021/09/19 08:13:19;;;;;;;7.05;3.35;;;15.00;98.90;;;;;;7409191;19;20014;-88
2021/09/19 08:15:48;;;;;;;5.82;2.95;;;15.00;98.70;;;;;;7412036;19;20006;-89
2021/09/19 08:18:17;;;;;;;6.53;3.40;;;14.90;98.70;;;;;;7426414;19;20053;-89
2021/09/19 08:20:49;;;;;;;5.65;3.28;;;14.90;98.70;;;;;;7420149;19;20003;-90
2021/09/19 08:23:19;;;;;;;4.90;3.05;;;14.90;98.70;;;;;;7412228;19;20049;-90
2021/09/19 08:25:48;;;;;;;7.45;3.08;;;15.00;98.40;;;;;;7410705;19;20017;-89
2021/09/19 08:28:20;;;;;;;6.22;3.08;;;15.00;98.60;;;;;;7411567;19;20413;-88
2021/09/19 08:30:50;;;;;;;7.47;3.35;;;15.10;98.50;;;;;;7415198;19;20023;-93
2021/09/19 08:33:27;;;;;;;5.68;3.35;;;15.10;98.70;;;;;;7415277;19;20087;-89
2021/09/19 08:36:02;;;;;;;5.43;3.13;;;15.10;98.40;;;;;;7411912;19;20009;-88
2021/09/19 08:38:32;;;;;;;6.13;3.17;;;15.10;97.90;;;;;;7416135;19;20002;-90
2021/09/19 08:41:05;;;;;;;6.43;2.70;;;15.00;97.50;;;;;;7415404;19;20029;-90
2021/09/19 08:43:43;;;;;;;6.68;3.22;;;15.10;97.20;;;;;;7413730;19;20006;-89
2021/09/19 08:46:17;;;;;;;7.07;3.10;;;15.10;97.10;;;;;;7411570;19;20310;-90
2021/09/19 08:48:47;;;;;;;6.00;3.35;;;15.10;96.80;;;;;;7409286;19;20014;-89
2021/09/19 08:51:17;;;;;;;5.10;2.95;;;15.10;96.50;;;;;;7412079;19;20014;-88
2021/09/19 08:53:48;;;;;;;6.38;3.00;;;15.10;96.50;;;;;;7401438;19;20014;-81
2021/09/19 08:56:24;;;;;;;9.32;3.80;;;15.20;96.20;;;;;;7402783;19;20027;-81
2021/09/19 08:58:56;;;;;;;4.70;2.72;;;15.20;96.20;;;;;;7400743;19;20025;-81
2021/09/19 09:01:26;;;;;;;5.68;2.88;;;15.30;96.00;;;;;;7402956;19;20019;-81
2021/09/19 09:04:05;;;;;;;6.00;2.60;;;15.30;96.00;;;;;;7402074;19;20082;-82
2021/09/19 09:06:40;;;;;;;7.63;2.90;;;15.40;95.90;;;;;;7402439;19;20018;-81
2021/09/19 09:09:17;;;;;;;4.80;2.83;;;15.40;95.60;;;;;;7401459;19;20043;-81
2021/09/19 09:12:14;;;;;;;5.13;3.00;;;15.50;95.30;;;;;;7402042;19;20010;-79
2021/09/19 09:14:51;;;;;;;5.38;2.60;;;15.50;94.60;;;;;;7401222;19;20022;-81
2021/09/19 09:17:24;;;;;;;11.32;2.80;;;15.50;94.00;;;;;;7401720;19;20043;-80
2021/09/19 09:19:55;;;;;;;5.70;3.17;;;15.40;93.60;;;;;;7401453;19;20011;-81
2021/09/19 09:22:26;;;;;;;4.00;2.15;;;15.50;93.80;;;;;;7400553;19;20011;-80
2021/09/19 09:25:11;;;;;;;4.85;2.60;;;15.50;93.70;;;;;;7400313;19;20086;-79
2021/09/19 09:27:43;;;;;;;10.15;3.20;;;15.70;92.90;;;;;;7397732;19;20014;-79
2021/09/19 09:30:22;;;;;;;4.88;2.50;;;15.70;92.00;;;;;;7397761;19;20044;-79
2021/09/19 09:32:58;;;;;;;4.68;2.53;;;15.80;91.80;;;;;;7400178;19;20029;-79
2021/09/19 09:35:35;;;;;;;6.07;2.55;;;15.90;91.50;;;;;;7399886;19;20021;-79
2021/09/19 09:38:20;;;;;;;5.38;2.45;;;16.10;90.60;;;;;;7400968;19;20003;-79
2021/09/19 09:40:53;;;;;;;7.10;2.70;;;16.30;88.20;;;;;;7399888;19;20340;-79
2021/09/19 09:43:22;;;;;;;3.75;2.28;;;16.20;88.00;;;;;;7408255;19;20060;-80
2021/09/19 09:45:56;;;;;;;4.43;2.25;;;16.20;87.90;;;;;;7406961;19;20439;-80
2021/09/19 09:48:31;;;;;;;6.40;2.30;;;16.20;87.80;;;;;;7398579;19;20452;-81
2021/09/19 09:51:03;;;;;;;5.20;2.30;;;16.20;88.20;;;;;;7402145;19;20014;-80
2021/09/19 09:53:39;;;;;;;5.65;2.17;;;16.20;88.30;;;;;;7399771;19;20138;-80
2021/09/19 09:56:11;;;;;;;4.25;2.42;;;16.10;87.90;;;;;;7400797;19;20466;-81
2021/09/19 09:58:41;;;;;;;5.65;2.40;;;16.20;87.60;;;;;;7397573;19;20017;-81
2021/09/19 10:01:17;;;;;;;4.90;2.40;;;16.10;87.40;;;;;;7398113;19;20018;-80
2021/09/19 10:03:48;;;;;;;4.45;2.30;;;16.10;87.00;;;;;;7397998;19;20044;-80
2021/09/19 10:06:20;;;;;;;5.15;2.55;;;16.10;86.90;;;;;;7400644;19;20028;-79
2021/09/19 10:08:51;;;;;;;5.47;2.47;;;16.00;86.90;;;;;;7398996;19;20107;-80
2021/09/19 10:11:22;;;;;;;5.30;2.65;;;15.90;87.20;;;;;;7405342;19;20030;-81
2021/09/19 10:13:54;;;;;;;5.05;2.20;;;15.80;87.70;;;;;;7414793;19;20033;-80
2021/09/19 10:16:26;;;;;;;4.63;2.25;;;15.70;88.30;;;;;;7408497;19;20019;-81
2021/09/19 10:18:58;;;;;;;5.00;2.35;;;15.70;88.40;;;;;;7402521;19;20007;-82
2021/09/19 10:21:31;;;;;;;5.00;2.70;;;15.50;88.00;;;;;;7402821;19;20103;-81
2021/09/19 10:24:02;;;;;;;7.25;2.38;;;15.50;88.10;;;;;;7402546;19;20297;-81
2021/09/19 10:26:32;;;;;;;5.50;2.38;;;15.60;88.00;;;;;;7405090;19;20464;-81
2021/09/19 10:29:04;;;;;;;5.57;2.83;;;15.60;87.50;;;;;;7399313;19;20017;-80
2021/09/19 10:31:45;;;;;;;6.90;3.70;;;15.70;87.40;;;;;;7399353;19;20314;-80
2021/09/19 10:34:27;;;;;;;8.30;2.75;;;15.70;87.90;;;;;;7396991;19;20018;-80
2021/09/19 10:37:02;;;;;;;11.65;2.65;;;15.70;87.80;;;;;;7399091;19;20022;-80
2021/09/19 10:39:33;;;;;;;5.82;2.63;;;15.70;87.60;;;;;;7399827;19;20061;-81
2021/09/19 10:42:30;;;;;;;5.88;2.80;;;15.80;86.60;;;;;;7402241;19;20010;-80
2021/09/19 10:45:18;;;;;;;6.00;2.55;;;15.70;87.50;;;;;;7412724;19;20420;-80
2021/09/19 10:48:00;;;;;;;11.20;2.67;;;15.90;87.50;;;;;;7399148;19;20493;-80
2021/09/19 10:50:39;;;;;;;7.25;4.13;;;16.00;86.50;;;;;;7398098;19;20259;-80
2021/09/19 11:01:10;;;;;;;5.22;2.13;;;16.20;84.20;;;;;;7397418;19;20010;-81
2021/09/19 11:12:12;;;;;;;5.65;2.40;;;17.10;81.10;;;;;;7395169;19;20031;-80
2021/09/19 11:15:02;;;;;;;5.65;2.22;;;17.60;79.30;;;;;;7391902;19;20018;-80
2021/09/19 11:17:37;;;;;;;;;;;17.90;77.30;;;;;;7396586;19;20070;-80
2021/09/19 11:20:33;;;;;;;5.70;1.92;;;18.20;75.60;;;;;;7396540;19;19946;-80
2021/09/19 11:23:52;;;;;;;4.13;2.00;;;18.30;73.70;;;;;;7398286;19;20601;-80
2021/09/19 11:27:15;;;;;;;3.90;2.00;;;18.20;74.00;;;;;;7395424;19;20034;-80
2021/09/19 11:30:23;;;;;;;5.97;2.60;;;18.20;73.40;;;;;;7395253;19;20015;-79
2021/09/19 11:33:14;;;;;;;4.47;2.20;;;18.20;73.60;;;;;;7395664;19;20018;-80
2021/09/19 11:35:48;;;;;;;6.43;2.03;;;18.10;73.90;;;;;;7396416;19;20267;-81
2021/09/19 11:38:21;;;;;;;4.18;2.47;;;18.00;73.50;;;;;;7397295;19;20014;-80
2021/09/19 11:41:09;;;;;;;4.25;2.65;;;18.10;73.20;;;;;;7396117;19;20014;-80
2021/09/19 11:44:00;;;;;;;4.03;2.10;;;18.20;72.40;;;;;;7396947;19;20017;-80
2021/09/19 11:46:34;;;;;;;3.97;2.28;;;18.20;72.50;;;;;;7394062;19;20011;-81
2021/09/19 11:49:18;;;;;;;5.75;2.47;;;18.20;72.50;;;;;;7393812;19;20018;-81
2021/09/19 11:52:16;;;;;;;6.93;2.00;;;18.10;73.40;;;;;;7398684;19;20467;-80
2021/09/19 11:54:57;;;;;;;4.25;2.30;;;18.00;72.80;;;;;;7401328;19;20479;-81
2021/09/19 11:57:29;;;;;;;4.82;2.47;;;17.90;73.50;;;;;;7399541;19;20433;-80
2021/09/19 12:00:11;;;;;;;4.53;2.53;;;17.70;74.60;;;;;;7407722;19;20099;-79
2021/09/19 12:02:46;;;;;;;4.47;2.38;;;17.60;75.10;;;;;;7408721;19;20010;-81
2021/09/19 12:05:16;;;;;;;5.07;2.28;;;17.50;75.00;;;;;;7402073;19;20014;-80
2021/09/19 12:07:48;;;;;;;5.90;2.45;;;17.40;75.20;;;;;;7402768;19;20011;-80
2021/09/19 12:10:29;;;;;;;4.10;2.10;;;17.30;75.70;;;;;;7400813;19;20015;-80
2021/09/19 12:13:23;;;;;;;6.03;2.42;;;17.20;75.60;;;;;;7400664;19;20022;-79
2021/09/19 12:16:04;;;;;;;4.35;2.40;;;17.10;75.80;;;;;;7402004;19;20030;-80
2021/09/19 12:18:40;;;;;;;6.03;2.80;;;17.10;76.00;;;;;;7400878;19;20010;-79
2021/09/19 12:21:26;;;;;;;5.78;2.25;;;17.10;76.20;;;;;;7401525;19;20041;-80
2021/09/19 12:24:03;;;;;;;6.03;2.53;;;17.10;76.40;;;;;;7404904;19;20409;-80
2021/09/19 12:26:36;;;;;;;6.10;2.75;;;17.10;76.60;;;;;;7404785;19;20014;-78
2021/09/19 12:29:08;;;;;;;6.13;2.85;;;17.10;76.50;;;;;;7404024;19;20468;-80
2021/09/19 12:31:41;;;;;;;4.18;2.40;;;17.20;75.70;;;;;;7401773;19;20034;-80
2021/09/19 12:34:14;;;;;;;4.93;2.40;;;17.20;76.00;;;;;;7417048;19;20021;-79
2021/09/19 12:36:45;;;;;;;3.88;2.13;;;17.20;76.20;;;;;;7404264;19;20014;-79
2021/09/19 12:39:20;;;;;;;10.10;3.88;;;17.10;76.80;;;;;;7399269;19;20013;-80
2021/09/19 12:41:52;;;;;;;6.38;3.17;;;17.10;76.90;;;;;;7401689;19;20402;-80
2021/09/19 12:44:24;;;;;;;5.80;2.55;;;17.10;75.90;;;;;;7400390;19;20066;-80
2021/09/19 12:46:55;;;;;;;4.30;2.58;;;17.10;75.80;;;;;;7400186;19;20516;-80
2021/09/19 12:49:31;;;;;;;5.80;2.42;;;16.90;76.00;;;;;;7400797;19;20011;-79
2021/09/19 12:52:07;;;;;;;6.13;2.22;;;17.00;76.40;;;;;;7402752;19;20011;-80
2021/09/19 12:54:48;;;;;;;5.75;2.00;;;17.00;76.20;;;;;;7401544;19;20030;-80
2021/09/19 12:57:25;;;;;;;6.03;2.38;;;17.20;76.30;;;;;;7401881;19;20015;-80
2021/09/19 12:59:55;;;;;;;5.32;2.33;;;17.40;75.50;;;;;;7402110;19;20018;-80
2021/09/19 13:02:25;;;;;;;7.65;2.20;;;17.60;75.00;;;;;;7401467;19;20011;-81
2021/09/19 13:04:55;;;;;;;5.60;2.50;;;17.90;74.30;;;;;;7402274;19;20015;-80
2021/09/19 13:07:25;;;;;;;5.10;2.47;;;18.30;73.10;;;;;;7417333;19;20010;-80
2021/09/19 13:09:58;;;;;;;4.88;2.50;;;18.60;71.60;;;;;;7409558;19;20010;-80
2021/09/19 13:12:28;;;;;;;5.93;2.42;;;18.90;71.00;;;;;;7405288;19;20018;-80
2021/09/19 13:15:03;;;;;;;6.45;2.55;;;19.20;69.00;;;;;;7399305;19;20082;-80
2021/09/19 13:17:42;;;;;;;5.32;3.30;;;19.40;67.00;;;;;;7404964;19;20070;-80
2021/09/19 13:20:20;;;;;;;5.75;2.47;;;19.20;67.00;;;;;;7399642;19;20018;-80
2021/09/19 13:22:50;;;;;;;6.80;3.03;;;18.90;67.40;;;;;;7402195;19;20079;-79
2021/09/19 13:25:22;;;;;;;6.07;2.95;;;18.70;68.50;;;;;;7400740;19;20015;-80
2021/09/19 13:27:52;;;;;;;5.47;3.35;;;18.30;69.00;;;;;;7399213;19;20416;-80
2021/09/19 13:30:25;;;;;;;8.77;3.67;;;18.00;69.40;;;;;;7398195;19;20018;-81
2021/09/19 13:32:55;;;;;;;5.03;3.10;;;17.70;70.40;;;;;;7398433;19;20015;-80